Time;durP1;ratioP1;P1;durP2;ratioP2;P2;SDS_P1;SDS_P2;PMS_P1;PMS_P2;Temp;Humidity;BMP_temperature;BMP_pressure;BME280_temperature;BME280_humidity;BME280_pressure;Samples;Min_cycle;Max_cycle;Signal;HPM_P1;HPM_P2
2021/11/20 00:01:07;;;;;;;14.20;8.80;;;;;;;-142.75;100.00;78328.53;5028439;28;20033;-66
2021/11/20 00:03:34;;;;;;;14.18;8.52;;;;;;;-142.75;100.00;78310.81;5029178;28;20441;-65
2021/11/20 00:06:00;;;;;;;15.00;8.93;;;;;;;-142.75;100.00;78320.66;5030174;28;20048;-64
2021/11/20 00:08:26;;;;;;;14.15;9.27;;;;;;;-142.75;100.00;78326.56;5027297;28;20661;-65
2021/11/20 00:10:57;;;;;;;12.45;9.00;;;;;;;-142.75;100.00;78314.75;5028463;28;20026;-65
2021/11/20 00:13:24;;;;;;;14.07;9.65;;;;;;;-142.75;100.00;78324.59;5028920;28;20029;-66
2021/11/20 00:15:52;;;;;;;16.73;10.32;;;;;;;-142.75;100.00;78334.44;5029005;28;20083;-65
2021/11/20 00:18:19;;;;;;;17.52;10.27;;;;;;;-142.75;100.00;78334.44;5029224;28;20072;-66
2021/11/20 00:20:52;;;;;;;15.75;10.48;;;;;;;-142.75;100.00;78342.31;5028511;28;20394;-65
2021/11/20 00:23:21;;;;;;;14.15;10.40;;;;;;;-142.75;100.00;78334.44;5029419;28;20028;-66
2021/11/20 00:25:50;;;;;;;14.30;10.48;;;;;;;-142.75;100.00;78338.38;5029289;28;20508;-65
2021/11/20 00:28:31;;;;;;;14.23;10.35;;;;;;;-142.75;100.00;78332.47;5029729;28;20018;-66
2021/11/20 00:31:05;;;;;;;15.25;10.88;;;;;;;-142.75;100.00;78320.66;5032091;28;20030;-65
2021/11/20 00:33:32;;;;;;;14.57;10.90;;;;;;;-142.75;100.00;78326.56;5032791;28;20033;-65
2021/11/20 00:36:00;;;;;;;20.55;11.90;;;;;;;-142.75;100.00;78338.38;5032603;28;20103;-65
2021/11/20 00:38:27;;;;;;;20.58;11.88;;;;;;;-142.75;100.00;78338.38;5032771;28;20082;-65
2021/11/20 00:40:58;;;;;;;17.83;12.05;;;;;;;-142.75;100.00;78330.50;5031720;28;20483;-65
2021/11/20 00:43:24;;;;;;;19.50;12.77;;;;;;;-142.75;100.00;78320.66;5032752;28;20021;-65
2021/11/20 00:45:49;;;;;;;20.85;13.68;;;;;;;-142.75;100.00;78340.34;5032596;28;20029;-65
2021/11/20 00:48:18;;;;;;;21.85;12.40;;;;;;;-142.75;100.00;78340.34;5032764;28;20079;-65
2021/11/20 00:50:47;;;;;;;18.08;12.50;;;;;;;-142.75;100.00;78328.53;5031642;28;20029;-65
2021/11/20 00:53:13;;;;;;;20.60;13.35;;;;;;;-142.75;100.00;78322.63;5032451;28;20073;-66
2021/11/20 00:55:39;;;;;;;20.98;13.23;;;;;;;-142.75;100.00;78328.53;5032351;28;20091;-65
2021/11/20 00:58:05;;;;;;;21.02;12.93;;;;;;;-142.75;100.00;78326.56;5032373;28;20067;-65
2021/11/20 01:00:42;;;;;;;22.52;14.00;;;;;;;-142.75;100.00;78358.06;5031561;28;20075;-65
2021/11/20 01:03:08;;;;;;;20.08;13.32;;;;;;;-142.75;100.00;78338.38;5014529;28;20025;-66
2021/11/20 01:05:34;;;;;;;20.52;12.38;;;;;;;-142.75;100.00;78350.19;5032195;28;20025;-66
2021/11/20 01:08:00;;;;;;;19.98;13.15;;;;;;;-142.75;100.00;78322.63;5046831;22;20049;-67
2021/11/20 01:10:29;;;;;;;18.27;12.18;;;;;;;-142.75;100.00;78310.81;5039984;28;20139;-69
2021/11/20 01:12:55;;;;;;;22.20;13.48;;;;;;;-142.75;100.00;78320.66;5049012;28;20028;-69
2021/11/20 01:15:29;;;;;;;19.75;13.02;;;;;;;-142.75;100.00;78330.50;5032193;28;20096;-68
2021/11/20 01:17:54;;;;;;;21.17;13.40;;;;;;;-142.75;100.00;78334.44;5032457;28;20030;-69
2021/11/20 01:20:21;;;;;;;23.80;14.32;;;;;;;-142.75;100.00;78326.56;5036896;28;20088;-68
2021/11/20 01:22:46;;;;;;;21.15;13.95;;;;;;;-142.75;100.00;78328.53;5026662;28;20032;-69
2021/11/20 01:25:12;;;;;;;21.38;14.38;;;;;;;-142.75;100.00;78326.56;5036633;28;20096;-70
2021/11/20 01:27:38;;;;;;;22.50;14.10;;;;;;;-142.75;100.00;78330.50;5034127;28;20032;-69
2021/11/20 01:30:06;;;;;;;21.67;13.63;;;;;;;-142.75;100.00;78316.72;5031069;28;20025;-69
2021/11/20 01:32:31;;;;;;;24.38;14.02;;;;;;;-142.75;100.00;78322.63;5027431;28;20029;-68
2021/11/20 01:34:56;;;;;;;24.77;14.55;;;;;;;-142.75;100.00;78320.66;5042015;28;20091;-69
2021/11/20 01:37:22;;;;;;;28.05;15.30;;;;;;;-142.75;100.00;78332.47;5044725;28;20044;-68
2021/11/20 01:39:48;;;;;;;22.65;14.68;;;;;;;-142.75;100.00;78334.44;5045099;28;20070;-69
2021/11/20 01:42:23;;;;;;;;;;;;;;;-142.75;100.00;78334.44;5022298;28;20028;-69
2021/11/20 01:44:52;;;;;;;25.27;15.63;;;;;;;-142.75;100.00;78318.69;5017038;28;20044;-71
2021/11/20 01:47:29;;;;;;;25.73;14.80;;;;;;;-142.75;100.00;78312.78;5027492;28;20025;-68
2021/11/20 01:50:06;;;;;;;27.00;16.02;;;;;;;-142.75;100.00;78314.75;5040955;28;20029;-69
2021/11/20 01:53:08;;;;;;;23.83;15.07;;;;;;;-142.75;100.00;78318.69;5049998;28;20414;-71
2021/11/20 01:56:00;;;;;;;23.75;15.27;;;;;;;-142.75;100.00;78304.91;5026363;28;20060;-70
2021/11/20 01:58:37;;;;;;;24.50;15.30;;;;;;;-142.75;100.00;78308.84;5051092;28;20040;-71
2021/11/20 02:01:10;;;;;;;26.77;16.02;;;;;;;-142.75;100.00;78314.75;5038409;28;20087;-69
2021/11/20 02:03:55;;;;;;;24.77;15.25;;;;;;;-142.75;100.00;78316.72;5023268;28;20025;-69
2021/11/20 02:06:28;;;;;;;24.02;15.18;;;;;;;-142.75;100.00;78314.75;5049170;28;20052;-70
2021/11/20 02:08:59;;;;;;;26.90;15.00;;;;;;;-142.75;100.00;78318.69;5029512;28;20441;-69
2021/11/20 02:11:38;;;;;;;23.45;14.40;;;;;;;-142.75;100.00;78310.81;5019420;28;20414;-69
2021/11/20 02:14:05;;;;;;;23.00;14.13;;;;;;;-142.75;100.00;78302.94;5040694;28;20506;-69
2021/11/20 02:16:46;;;;;;;25.92;15.88;;;;;;;-142.75;100.00;78310.81;5031791;28;20398;-69
2021/11/20 02:19:19;;;;;;;23.73;14.85;;;;;;;-142.75;100.00;78287.16;5023676;28;20422;-69
2021/11/20 02:21:53;;;;;;;23.60;14.90;;;;;;;-142.75;100.00;78289.13;5038230;28;20033;-69
2021/11/20 02:24:18;;;;;;;23.00;14.50;;;;;;;-142.75;100.00;78295.06;5050973;28;20036;-68
2021/11/20 02:26:43;;;;;;;23.47;13.17;;;;;;;-142.75;100.00;78291.09;5032769;28;20039;-70
2021/11/20 02:29:11;;;;;;;23.23;14.03;;;;;;;-142.75;100.00;78295.06;5043606;28;20033;-69
2021/11/20 02:31:41;;;;;;;23.95;14.18;;;;;;;-142.75;100.00;78297.00;5029923;28;20698;-69
2021/11/20 02:34:06;;;;;;;23.42;14.10;;;;;;;-142.75;100.00;78279.28;5012839;28;20068;-70
2021/11/20 02:36:32;;;;;;;21.95;13.52;;;;;;;-142.75;100.00;78285.19;5027933;28;20696;-69
2021/11/20 02:39:13;;;;;;;22.40;13.13;;;;;;;-142.75;100.00;78271.41;5025665;28;20032;-68
2021/11/20 02:41:38;;;;;;;21.92;13.50;;;;;;;-142.75;100.00;78263.53;5049070;28;20394;-69
2021/11/20 02:44:05;;;;;;;20.65;12.77;;;;;;;-142.75;100.00;78263.53;5038495;28;20073;-69
2021/11/20 02:46:34;;;;;;;23.17;13.15;;;;;;;-142.75;100.00;78263.53;5033101;28;20083;-69
2021/11/20 02:49:01;;;;;;;20.20;12.70;;;;;;;-142.75;100.00;78275.34;5042708;28;20025;-69
2021/11/20 02:51:31;;;;;;;18.48;11.95;;;;;;;-142.75;100.00;78283.22;5047813;28;20024;-67
2021/11/20 02:54:02;;;;;;;20.20;12.25;;;;;;;-142.75;100.00;78283.22;5041014;28;20485;-68
2021/11/20 02:56:31;;;;;;;17.35;11.27;;;;;;;-142.75;100.00;78287.16;5031567;28;20041;-69
2021/11/20 02:58:58;;;;;;;21.02;12.05;;;;;;;-142.75;100.00;78281.25;5043166;28;20029;-69
2021/11/20 03:01:30;;;;;;;20.65;11.35;;;;;;;-142.75;100.00;78291.09;5043692;28;20049;-69
2021/11/20 03:03:56;;;;;;;18.23;12.32;;;;;;;-142.75;100.00;78287.16;5023777;28;20021;-66
2021/11/20 03:06:21;;;;;;;17.05;11.05;;;;;;;-142.75;100.00;78271.41;5048437;28;20474;-69
2021/11/20 03:08:47;;;;;;;17.92;11.38;;;;;;;-142.75;100.00;78271.41;5037906;28;20442;-70
2021/11/20 03:11:13;;;;;;;18.35;11.40;;;;;;;-142.75;100.00;78267.47;5035371;28;20032;-69
2021/11/20 03:13:40;;;;;;;16.23;11.13;;;;;;;-142.75;100.00;78271.41;5040054;28;20920;-71
2021/11/20 03:16:06;;;;;;;17.33;11.75;;;;;;;-142.75;100.00;78255.66;5045615;28;20218;-69
2021/11/20 03:18:32;;;;;;;18.38;12.07;;;;;;;-142.75;100.00;78243.84;5044132;28;20490;-69
2021/11/20 03:20:57;;;;;;;18.92;12.13;;;;;;;-142.75;100.00;78235.97;5018133;28;20021;-69
2021/11/20 03:23:27;;;;;;;18.08;11.20;;;;;;;-142.75;100.00;78230.06;5020305;28;20016;-69
2021/11/20 03:25:52;;;;;;;19.50;12.00;;;;;;;-142.75;100.00;78220.22;5038630;28;20506;-69
2021/11/20 03:28:18;;;;;;;17.35;11.57;;;;;;;-142.75;100.00;78230.06;5039611;28;20029;-69
2021/11/20 03:30:44;;;;;;;19.92;13.50;;;;;;;-142.75;100.00;78220.22;5040096;28;20028;-69
2021/11/20 03:33:10;;;;;;;23.17;13.80;;;;;;;-142.75;100.00;78234.00;5033574;28;20410;-69
2021/11/20 03:35:36;;;;;;;22.42;14.18;;;;;;;-142.75;100.00;78228.09;5048180;28;20051;-68
2021/11/20 03:38:02;;;;;;;23.40;14.38;;;;;;;-142.75;100.00;78234.00;5038291;28;20021;-69
2021/11/20 03:40:28;;;;;;;22.70;14.20;;;;;;;-142.75;100.00;78232.03;5037677;28;20549;-68
2021/11/20 03:42:53;;;;;;;22.33;13.77;;;;;;;-142.75;100.00;78232.03;5021911;28;20128;-69
2021/11/20 03:45:22;;;;;;;20.00;13.23;;;;;;;-142.75;100.00;78237.94;5035316;28;20029;-69
2021/11/20 03:47:47;;;;;;;22.25;12.90;;;;;;;-142.75;100.00;78235.97;5030923;28;20029;-70
2021/11/20 03:50:14;;;;;;;21.15;13.57;;;;;;;-142.75;100.00;78226.13;5046343;28;20033;-69
2021/11/20 03:52:42;;;;;;;20.77;13.70;;;;;;;-142.75;100.00;78224.16;5037554;28;20028;-69
2021/11/20 03:55:09;;;;;;;21.17;14.13;;;;;;;-142.75;100.00;78224.16;5036266;28;20698;-68
2021/11/20 03:57:35;;;;;;;18.98;13.52;;;;;;;-142.75;100.00;78222.19;5030390;28;20026;-69
2021/11/20 04:00:01;;;;;;;20.83;13.77;;;;;;;-142.75;100.00;78220.22;5030648;28;20040;-69
2021/11/20 04:02:26;;;;;;;21.17;13.20;;;;;;;-142.75;100.00;78220.22;5031918;28;20021;-69
2021/11/20 04:04:51;;;;;;;20.83;13.88;;;;;;;-142.75;100.00;78228.09;5045840;28;20556;-69
2021/11/20 04:07:17;;;;;;;22.80;14.57;;;;;;;-142.75;100.00;78224.16;5022600;28;20051;-71
2021/11/20 04:09:42;;;;;;;20.75;13.98;;;;;;;-142.75;100.00;78218.25;5037462;28;20025;-68
2021/11/20 04:12:09;;;;;;;22.17;14.43;;;;;;;-142.75;100.00;78232.03;5044764;28;20025;-69
2021/11/20 04:14:34;;;;;;;20.42;13.48;;;;;;;-142.75;100.00;78216.28;5043521;28;20043;-69
2021/11/20 04:17:00;;;;;;;22.70;14.80;;;;;;;-142.75;100.00;78204.47;5030966;28;20119;-69
2021/11/20 04:19:25;;;;;;;22.02;14.18;;;;;;;-142.75;100.00;78208.41;5035637;28;20465;-69
2021/11/20 04:21:52;;;;;;;23.33;14.88;;;;;;;-142.75;100.00;78210.38;5035379;28;20027;-69
2021/11/20 04:24:18;;;;;;;21.48;13.70;;;;;;;-142.75;100.00;78204.47;5040074;28;20495;-69
2021/11/20 04:26:44;;;;;;;25.88;16.80;;;;;;;-142.75;100.00;78232.03;5040213;28;20025;-69
2021/11/20 04:29:10;;;;;;;23.35;15.88;;;;;;;-142.75;100.00;78247.78;5020091;28;20025;-69
2021/11/20 04:31:35;;;;;;;27.88;17.55;;;;;;;-142.75;100.00;78234.00;5015111;28;20032;-69
2021/11/20 04:34:01;;;;;;;25.95;17.45;;;;;;;-142.75;100.00;78228.09;5016662;28;20498;-69
2021/11/20 04:36:28;;;;;;;23.70;16.55;;;;;;;-142.75;100.00;78226.13;5041305;28;20490;-71
2021/11/20 04:38:54;;;;;;;26.50;17.48;;;;;;;-142.75;100.00;78230.06;5034960;28;20108;-69
2021/11/20 04:41:20;;;;;;;27.98;18.20;;;;;;;-142.75;100.00;78220.22;5044298;28;20104;-70
2021/11/20 04:43:47;;;;;;;;;;;;;;;-142.75;100.00;78212.34;5022428;28;20017;-69
2021/11/20 04:46:14;;;;;;;29.65;16.50;;;;;;;-142.75;100.00;78228.09;5046263;28;19913;-69
2021/11/20 04:48:40;;;;;;;27.92;16.00;;;;;;;-142.75;100.00;78232.03;5039451;28;20037;-69
2021/11/20 04:51:06;;;;;;;27.27;16.25;;;;;;;-142.75;100.00;78237.94;5038089;28;20487;-68
2021/11/20 04:53:34;;;;;;;26.17;16.10;;;;;;;-142.75;100.00;78241.88;5035337;28;20025;-69
2021/11/20 04:56:00;;;;;;;30.33;16.58;;;;;;;-142.75;100.00;78247.78;5021221;28;20425;-69
2021/11/20 04:58:27;;;;;;;26.10;16.42;;;;;;;-142.75;100.00;78245.81;5043140;28;20025;-69
2021/11/20 05:00:55;;;;;;;24.42;16.50;;;;;;;-142.75;100.00;78267.47;5036117;28;20384;-70
2021/11/20 05:03:22;;;;;;;24.05;15.98;;;;;;;-142.75;100.00;78255.66;5034438;28;20017;-68
2021/11/20 05:05:50;;;;;;;26.38;16.52;;;;;;;-142.75;100.00;78247.78;5032165;28;20096;-69
2021/11/20 05:08:15;;;;;;;24.27;15.98;;;;;;;-142.75;100.00;78271.41;5036666;28;20497;-69
2021/11/20 05:10:42;;;;;;;23.08;15.98;;;;;;;-142.75;100.00;78259.59;5047782;28;20078;-69
2021/11/20 05:13:07;;;;;;;;;;;;;;;-142.75;100.00;78259.59;5042893;28;20025;-68
2021/11/20 05:15:35;;;;;;;22.67;15.65;;;;;;;-142.75;100.00;78251.72;5025908;28;19913;-69
2021/11/20 05:18:00;;;;;;;19.83;15.40;;;;;;;-142.75;100.00;78239.91;5018232;28;20394;-69
2021/11/20 05:20:26;;;;;;;23.85;16.50;;;;;;;-142.75;100.00;78228.09;5034743;28;20049;-71
2021/11/20 05:22:51;;;;;;;20.40;15.13;;;;;;;-142.75;100.00;78230.06;5023785;28;20041;-68
2021/11/20 05:25:19;;;;;;;19.77;14.40;;;;;;;-142.75;100.00;78232.03;5042018;28;20033;-69
2021/11/20 05:27:48;;;;;;;19.30;15.13;;;;;;;-142.75;100.00;78235.97;5016993;28;20025;-71
2021/11/20 05:30:25;;;;;;;20.45;14.65;;;;;;;-142.75;100.00;78228.09;5023302;28;20017;-69
2021/11/20 05:32:51;;;;;;;21.02;15.23;;;;;;;-142.75;100.00;78230.06;5038484;28;20047;-68
2021/11/20 05:35:19;;;;;;;21.13;15.30;;;;;;;-142.75;100.00;78234.00;5031495;28;20056;-68
2021/11/20 05:37:46;;;;;;;19.25;13.60;;;;;;;-142.75;100.00;78234.00;5021546;28;20040;-68
2021/11/20 05:40:13;;;;;;;;;;;;;;;-142.75;100.00;78234.00;5024404;28;20538;-68
2021/11/20 05:42:45;;;;;;;17.23;12.27;;;;;;;-142.75;100.00;78239.91;5044372;28;19927;-68
2021/11/20 05:45:12;;;;;;;13.98;10.77;;;;;;;-142.75;100.00;78235.97;5050078;28;20029;-68
2021/11/20 05:47:37;;;;;;;14.30;10.68;;;;;;;-142.75;100.00;78243.84;5039217;28;20029;-68
2021/11/20 05:50:06;;;;;;;15.60;11.25;;;;;;;-142.75;100.00;78237.94;5032170;28;20032;-68
2021/11/20 05:52:32;;;;;;;16.88;11.60;;;;;;;-142.75;100.00;78251.72;5036972;28;20032;-68
2021/11/20 05:54:57;;;;;;;14.60;11.27;;;;;;;-142.75;100.00;78245.81;5038323;28;20506;-68
2021/11/20 05:57:23;;;;;;;14.10;10.27;;;;;;;-142.75;100.00;78245.81;5047937;28;20025;-69
2021/11/20 05:59:48;;;;;;;18.42;12.10;;;;;;;-142.75;100.00;78245.81;5024135;28;20650;-68
2021/11/20 06:02:13;;;;;;;14.15;11.02;;;;;;;-142.75;100.00;78251.72;5042767;28;20044;-68
2021/11/20 06:04:39;;;;;;;16.50;11.95;;;;;;;-142.75;100.00;78234.00;5035502;28;20041;-69
2021/11/20 06:07:04;;;;;;;14.98;11.70;;;;;;;-142.75;100.00;78243.84;5046303;28;20032;-68
2021/11/20 06:09:30;;;;;;;19.77;14.48;;;;;;;-142.75;100.00;78243.84;5036485;28;20057;-68
2021/11/20 06:11:55;;;;;;;20.30;15.40;;;;;;;-142.75;100.00;78247.78;5038689;28;20022;-68
2021/11/20 06:14:21;;;;;;;21.23;16.65;;;;;;;-142.75;100.00;78243.84;5016047;28;20029;-70
2021/11/20 06:16:46;;;;;;;25.98;17.70;;;;;;;-142.75;100.00;78239.91;5041679;28;20112;-68
2021/11/20 06:19:12;;;;;;;23.60;17.67;;;;;;;-142.75;100.00;78239.91;5027538;28;20036;-68
2021/11/20 06:21:38;;;;;;;22.10;16.35;;;;;;;-142.75;100.00;78237.94;5033102;28;20017;-69
2021/11/20 06:24:05;;;;;;;26.20;17.65;;;;;;;-142.75;100.00;78239.91;5036186;28;20036;-68
2021/11/20 06:26:31;;;;;;;29.00;19.10;;;;;;;-142.75;100.00;78235.97;5022061;28;20087;-69
2021/11/20 06:28:56;;;;;;;28.63;19.58;;;;;;;-142.75;100.00;78230.06;5037025;28;20029;-68
2021/11/20 06:31:22;;;;;;;28.30;18.75;;;;;;;-142.75;100.00;78226.13;5048383;28;20397;-68
2021/11/20 06:33:48;;;;;;;30.30;20.55;;;;;;;-142.75;100.00;78224.16;5037401;28;20064;-68
2021/11/20 06:36:13;;;;;;;29.92;20.77;;;;;;;-142.75;100.00;78224.16;5038053;28;20060;-70
2021/11/20 06:38:39;;;;;;;29.50;19.17;;;;;;;-142.75;100.00;78228.09;5021614;28;20313;-68
2021/11/20 06:41:07;;;;;;;25.65;18.95;;;;;;;-142.75;100.00;78224.16;5041288;28;20379;-68
2021/11/20 06:43:33;;;;;;;27.40;18.52;;;;;;;-142.75;100.00;78224.16;5036077;28;20013;-68
2021/11/20 06:46:02;;;;;;;27.00;17.20;;;;;;;-142.75;100.00;78224.16;5044595;28;20532;-69
2021/11/20 06:48:29;;;;;;;25.25;16.38;;;;;;;-142.75;100.00;78237.94;5027937;28;20029;-68
2021/11/20 06:50:55;;;;;;;25.30;17.27;;;;;;;-142.75;100.00;78228.09;5034721;28;20037;-69
2021/11/20 06:53:22;;;;;;;23.75;16.30;;;;;;;-142.75;100.00;78228.09;5014047;28;20030;-67
2021/11/20 06:55:48;;;;;;;27.67;17.27;;;;;;;-142.75;100.00;78234.00;5041419;28;20544;-67
2021/11/20 07:00:44;;;;;;;20.63;15.65;;;;;;;-142.75;100.00;78220.22;5045493;28;20037;-68
2021/11/20 07:03:20;;;;;;;22.42;15.65;;;;;;;-142.75;100.00;78230.06;5040888;28;20091;-69
2021/11/20 07:05:50;;;;;;;23.60;15.52;;;;;;;-142.75;100.00;78228.09;5028069;28;20020;-68
2021/11/20 07:08:17;;;;;;;21.98;14.88;;;;;;;-142.75;100.00;78245.81;5049534;22;20435;-65
2021/11/20 07:10:45;;;;;;;23.15;15.63;;;;;;;-142.75;100.00;78234.00;5029413;28;20059;-65
2021/11/20 07:13:12;;;;;;;20.27;14.70;;;;;;;-142.75;100.00;78228.09;5011931;28;20025;-66
2021/11/20 07:15:38;;;;;;;24.67;15.70;;;;;;;-142.75;100.00;78232.03;5030002;28;20021;-66
2021/11/20 07:18:04;;;;;;;21.40;14.05;;;;;;;-142.75;100.00;78232.03;5012158;28;20080;-65
2021/11/20 07:20:32;;;;;;;22.85;14.90;;;;;;;-142.75;100.00;78228.09;5029133;28;20022;-66
2021/11/20 07:22:58;;;;;;;24.23;16.15;;;;;;;-142.75;100.00;78222.19;5029830;28;20391;-66
2021/11/20 07:25:25;;;;;;;19.25;14.50;;;;;;;-142.75;100.00;78216.28;5029732;28;20044;-65
2021/11/20 07:27:52;;;;;;;21.45;15.95;;;;;;;-142.75;100.00;78208.41;5029577;28;20017;-65
2021/11/20 07:30:18;;;;;;;20.17;14.45;;;;;;;-142.75;100.00;78188.72;5028967;28;20029;-65
2021/11/20 07:32:45;;;;;;;24.05;16.35;;;;;;;-142.75;100.00;78180.81;5029456;28;20032;-66
2021/11/20 07:35:11;;;;;;;21.92;15.45;;;;;;;-142.75;100.00;78186.75;5029485;28;20033;-65
2021/11/20 07:37:37;;;;;;;19.48;15.07;;;;;;;-142.75;100.00;78180.81;5029019;28;20021;-66
2021/11/20 07:40:07;;;;;;;25.65;16.30;;;;;;;-142.75;100.00;78176.88;5028740;28;20036;-65
2021/11/20 07:42:32;;;;;;;21.20;14.77;;;;;;;-142.75;100.00;78180.81;5011584;28;20021;-65
2021/11/20 07:45:02;;;;;;;22.95;16.13;;;;;;;-142.75;100.00;78184.78;5029435;28;20025;-66
2021/11/20 07:47:29;;;;;;;21.75;16.20;;;;;;;-142.75;100.00;78178.84;5029322;28;20025;-66
2021/11/20 07:49:54;;;;;;;23.13;16.25;;;;;;;-142.75;100.00;78180.81;5028610;28;20033;-65
2021/11/20 07:52:20;;;;;;;23.67;16.83;;;;;;;-142.75;100.00;78196.59;5029273;28;20029;-65
2021/11/20 07:54:45;;;;;;;21.25;15.20;;;;;;;-142.75;100.00;78192.66;5029619;28;20502;-65
2021/11/20 07:57:10;;;;;;;22.55;16.08;;;;;;;-142.75;100.00;78184.78;5011501;28;20075;-66
2021/11/20 07:59:36;;;;;;;22.50;15.65;;;;;;;-142.75;100.00;78178.84;5029360;28;20479;-66
2021/11/20 08:02:02;;;;;;;21.35;15.50;;;;;;;-142.75;100.00;78180.81;5028514;28;20067;-66
2021/11/20 08:04:27;;;;;;;25.50;17.85;;;;;;;-142.75;100.00;78172.94;5029240;28;20025;-66
2021/11/20 08:06:52;;;;;;;25.92;17.67;;;;;;;-142.75;100.00;78176.88;5029084;28;20024;-66
2021/11/20 08:09:18;;;;;;;23.75;16.65;;;;;;;-142.75;100.00;78170.97;5027687;28;20030;-65
2021/11/20 08:11:43;;;;;;;25.42;17.05;;;;;;;-142.75;100.00;78169.00;5028413;28;20048;-65
2021/11/20 08:14:09;;;;;;;26.40;17.42;;;;;;;-142.75;100.00;78157.19;5028966;28;20128;-66
2021/11/20 08:16:38;;;;;;;27.33;18.45;;;;;;;-142.75;100.00;78149.31;5029144;28;20028;-66
2021/11/20 08:19:04;;;;;;;27.95;18.92;;;;;;;-142.75;100.00;78169.00;5027903;28;20053;-65
2021/11/20 08:21:29;;;;;;;28.25;19.20;;;;;;;-142.75;100.00;78165.06;5028104;28;20122;-66
2021/11/20 08:23:54;;;;;;;31.02;20.77;;;;;;;-142.75;100.00;78167.03;5028665;28;20479;-66
2021/11/20 08:26:23;;;;;;;33.05;20.60;;;;;;;-142.75;100.00;78149.31;5028491;28;20055;-66
2021/11/20 08:28:48;;;;;;;28.55;20.13;;;;;;;-142.75;100.00;78145.38;5028209;28;20543;-66
2021/11/20 08:31:14;;;;;;;29.55;20.48;;;;;;;-142.75;100.00;78147.34;5027292;28;20060;-66
2021/11/20 08:33:39;;;;;;;36.50;20.85;;;;;;;-142.75;100.00;78149.31;5027620;28;20026;-67
2021/11/20 08:36:09;;;;;;;34.28;21.58;;;;;;;-142.75;100.00;78149.31;5028052;28;20036;-66
2021/11/20 08:38:35;;;;;;;32.10;21.20;;;;;;;-142.75;100.00;78137.50;5008465;28;20498;-66
2021/11/20 08:41:01;;;;;;;30.88;20.73;;;;;;;-142.75;100.00;78137.50;5027169;28;20087;-66
2021/11/20 08:43:30;;;;;;;31.77;21.23;;;;;;;-142.75;100.00;78133.56;5028046;28;20022;-66
2021/11/20 08:45:58;;;;;;;36.00;23.70;;;;;;;-142.75;100.00;78147.34;5027806;28;20518;-66
2021/11/20 08:48:24;;;;;;;36.95;23.33;;;;;;;-142.75;100.00;78141.44;5027492;28;20065;-66
2021/11/20 08:50:55;;;;;;;36.78;24.63;;;;;;;-142.75;100.00;78145.38;5028985;28;20485;-66
2021/11/20 08:53:22;;;;;;;39.40;24.63;;;;;;;-142.75;100.00;78143.41;5013694;28;20052;-66
2021/11/20 08:55:47;;;;;;;36.28;23.40;;;;;;;-142.75;100.00;78127.66;5013300;28;20094;-65
2021/11/20 08:58:13;;;;;;;38.72;26.02;;;;;;;-142.75;100.00;78119.78;5031157;28;20494;-66
2021/11/20 09:00:48;;;;;;;41.35;25.23;;;;;;;-142.75;100.00;78107.97;5030605;28;20396;-66
2021/11/20 09:03:23;;;;;;;38.53;25.15;;;;;;;-142.75;100.00;78121.75;5013800;28;20026;-66
2021/11/20 09:06:07;;;;;;;39.25;24.98;;;;;;;-142.75;100.00;78121.75;5031353;28;20037;-66
2021/11/20 09:08:39;;;;;;;42.42;26.42;;;;;;;-142.75;100.00;78123.72;5031110;28;20025;-66
2021/11/20 09:11:15;;;;;;;44.83;28.48;;;;;;;-142.75;100.00;78117.81;5030486;28;20025;-65
2021/11/20 09:13:49;;;;;;;42.90;26.85;;;;;;;-142.75;100.00;78113.88;5030964;28;20053;-66
2021/11/20 09:16:21;;;;;;;43.88;26.52;;;;;;;-142.75;100.00;78109.94;5013505;28;20029;-65
2021/11/20 09:18:46;;;;;;;42.08;27.05;;;;;;;-142.75;100.00;78129.63;5031440;28;20152;-65
2021/11/20 09:21:14;;;;;;;41.10;26.40;;;;;;;-142.75;100.00;78111.91;5012571;28;20064;-65
2021/11/20 09:23:41;;;;;;;41.95;26.48;;;;;;;-142.75;100.00;78115.84;5030884;28;20167;-65
2021/11/20 09:26:07;;;;;;;43.10;27.42;;;;;;;-142.75;100.00;78133.56;5030990;28;20100;-65
2021/11/20 09:28:35;;;;;;;41.58;27.33;;;;;;;-142.75;100.00;78115.84;5034036;28;20101;-66
2021/11/20 09:31:03;;;;;;;44.60;28.15;;;;;;;-142.75;100.00;78109.94;5050041;28;20116;-66
2021/11/20 09:33:29;;;;;;;43.05;26.63;;;;;;;-142.75;100.00;78109.94;5050714;28;20039;-66
2021/11/20 09:35:54;;;;;;;44.55;27.42;;;;;;;-142.75;100.00;78115.84;5050761;28;20104;-66
2021/11/20 09:38:22;;;;;;;40.35;24.75;;;;;;;-142.75;100.00;78094.19;5050588;28;20400;-66
2021/11/20 09:40:56;;;;;;;37.03;23.23;;;;;;;-142.75;100.00;78094.19;5050135;28;20506;-65
2021/11/20 09:43:25;;;;;;;37.05;24.58;;;;;;;-142.75;100.00;78098.13;5050538;28;20055;-67
2021/11/20 09:46:01;;;;;;;40.17;25.58;;;;;;;-142.75;100.00;78096.16;5050343;28;20029;-66
2021/11/20 09:48:30;;;;;;;;;;;;;;;-142.75;100.00;78094.19;5051018;28;20107;-66
2021/11/20 09:51:06;;;;;;;38.80;23.98;;;;;;;-142.75;100.00;78076.47;5047991;28;20409;-66
2021/11/20 09:53:32;;;;;;;39.08;24.55;;;;;;;-142.75;100.00;78090.25;5050317;28;20025;-65
2021/11/20 09:56:03;;;;;;;34.38;22.85;;;;;;;-142.75;100.00;78082.38;5050478;28;20074;-67
2021/11/20 09:58:44;;;;;;;32.70;22.42;;;;;;;-142.75;100.00;78080.41;5050070;28;20890;-66
2021/11/20 10:01:23;;;;;;;31.85;22.10;;;;;;;-142.75;100.00;78070.56;5049489;28;20043;-66
2021/11/20 10:03:48;;;;;;;31.70;23.35;;;;;;;-142.75;100.00;78060.72;5050216;28;20028;-67
2021/11/20 10:06:20;;;;;;;30.40;20.80;;;;;;;-142.75;100.00;78070.56;5050525;28;20075;-66
2021/11/20 10:08:47;;;;;;;33.72;21.13;;;;;;;-142.75;100.00;78058.72;5050305;28;20024;-66
2021/11/20 10:11:23;;;;;;;31.58;21.38;;;;;;;-142.75;100.00;78048.88;5049354;28;20415;-66
2021/11/20 10:13:58;;;;;;;28.08;20.52;;;;;;;-142.75;100.00;78039.03;5049984;28;20033;-66
2021/11/20 10:16:30;;;;;;;29.30;21.75;;;;;;;-142.75;100.00;78021.31;5049931;28;20029;-65
2021/11/20 10:19:19;;;;;;;30.65;21.27;;;;;;;-142.75;100.00;78027.22;5031810;28;20368;-66
2021/11/20 10:22:16;;;;;;;29.05;21.15;;;;;;;-142.75;100.00;78019.34;5031497;28;20087;-67
2021/11/20 10:24:48;;;;;;;30.48;20.58;;;;;;;-142.75;100.00;78019.34;5049944;28;20387;-66
2021/11/20 10:27:27;;;;;;;31.65;21.88;;;;;;;-142.75;100.00;78031.16;5050180;28;20060;-66
2021/11/20 10:30:04;;;;;;;27.92;20.75;;;;;;;-142.75;100.00;78041.00;5048757;28;20032;-66
2021/11/20 10:32:33;;;;;;;30.83;21.75;;;;;;;-142.75;100.00;78046.91;5049472;28;20025;-66
2021/11/20 10:35:04;;;;;;;33.03;22.90;;;;;;;-142.75;100.00;78037.06;5049406;28;20029;-66
2021/11/20 10:37:40;;;;;;;36.60;24.38;;;;;;;-142.75;100.00;78039.03;5049518;28;20037;-67
2021/11/20 10:40:16;;;;;;;39.67;24.95;;;;;;;-142.75;100.00;78044.94;5048995;28;20039;-66
2021/11/20 10:42:45;;;;;;;40.13;24.42;;;;;;;-142.75;100.00;78031.16;5049499;28;20391;-66
2021/11/20 10:45:31;;;;;;;35.28;23.83;;;;;;;-142.75;100.00;78027.22;5049409;28;20036;-66
2021/11/20 10:48:09;;;;;;;38.60;24.07;;;;;;;-142.75;100.00;78027.22;5049409;28;20103;-66
2021/11/20 10:50:39;;;;;;;36.15;23.52;;;;;;;-142.75;100.00;78023.28;5047103;28;20025;-66
2021/11/20 10:53:17;;;;;;;36.15;23.77;;;;;;;-142.75;100.00;78029.19;5049283;28;20029;-66
2021/11/20 10:56:24;;;;;;;38.13;22.90;;;;;;;-142.75;100.00;78023.28;5049234;28;20025;-66
2021/11/20 10:59:19;;;;;;;35.87;23.07;;;;;;;-142.75;100.00;77999.66;5021713;28;20066;-67
2021/11/20 11:01:50;;;;;;;39.50;24.25;;;;;;;-142.75;100.00;78017.38;5048609;28;20017;-67
2021/11/20 11:04:40;;;;;;;37.28;22.13;;;;;;;-142.75;100.00;78019.34;5049225;28;20486;-66